HomeShort term forecast

Short term forecast

Graphical weather forecast for the next 48 hours for Montreal:
Short term forecast
This weather forecast is automatically refreshed every 3 hours.

Hourly Experimental Forecast for the next 48 hours

Overall summary: Foggy until tomorrow morning.

 Date & Hour   Temp   Feel   Baro   Hum   Speed & Bearing   Precipitation   Visibility   Cloud cover   Conditions 
 16/01/2018 - 07:00  -14.1°C  -19.8°C  1032.1 hPa  81%  9.2 km/h   0.03 mm/h  4.6km  87%  Mostly Cloudy 
 16/01/2018 - 08:00  -13.6°C  -19.0°C  1032.1 hPa  81%  8.6 km/h   0.10 mm/h  2.9km  90%  Light Snow 
 16/01/2018 - 09:00  -13.0°C  -18.1°C  1032.2 hPa  81%  8.2 km/h   0.05 mm/h  1.1km  93%  Foggy 
 16/01/2018 - 10:00  -12.4°C  -17.3°C  1032.0 hPa  82%  8.0 km/h   0.02 mm/h  0.7km  94%  Foggy 
 16/01/2018 - 11:00  -11.8°C  -16.4°C  1031.5 hPa  83%  7.6 km/h   0.01 mm/h  2.1km  90%  Foggy 
 16/01/2018 - 12:00  -10.9°C  -15.3°C  1030.8 hPa  85%  7.4 km/h   0.01 mm/h  3.9km  86%  Mostly Cloudy 
 16/01/2018 - 13:00  -10.4°C  -14.4°C  1030.4 hPa  86%  7.1 km/h   0.01 mm/h  4.8km  82%  Mostly Cloudy 
 16/01/2018 - 14:00  -10.1°C  -13.9°C  1030.3 hPa  87%  6.6 km/h   0.01 mm/h  3.7km  81%  Mostly Cloudy 
 16/01/2018 - 15:00  -10.1°C  -13.6°C  1030.5 hPa  87%  6.1 km/h   0.02 mm/h  1.8km  81%  Foggy 
 16/01/2018 - 16:00  -10.3°C  -13.7°C  1030.6 hPa  87%  5.9 km/h   0.03 mm/h  0.3km  80%  Foggy 
 16/01/2018 - 17:00  -10.8°C  -14.6°C  1030.8 hPa  88%  6.5 km/h   0.03 mm/h  0.2km  77%  Foggy 
 16/01/2018 - 18:00  -11.4°C  -15.8°C  1030.9 hPa  89%  7.3 km/h   0.03 mm/h  0.6km  75%  Foggy 
 16/01/2018 - 19:00  -12.0°C  -16.7°C  1031.0 hPa  89%  7.7 km/h   0.03 mm/h  0.9km  74%  Foggy 
 16/01/2018 - 20:00  -12.6°C  -17.1°C  1030.8 hPa  89%  7.2 km/h   0.02 mm/h  1.0km  74%  Foggy 
 16/01/2018 - 21:00  -13.2°C  -17.3°C  1030.7 hPa  89%  6.1 km/h   0.02 mm/h  1.1km  75%  Foggy 
 16/01/2018 - 22:00  -13.8°C  -17.4°C  1030.4 hPa  89%  5.3 km/h   0.01 mm/h  1.1km  77%  Foggy 
 16/01/2018 - 23:00  -14.5°C  -18.0°C  1030.1 hPa  89%  5.0 km/h   0.01 mm/h  1.0km  81%  Foggy 
 17/01/2018 - 00:00  -15.1°C  -18.7°C  1029.6 hPa  88%  5.1 km/h   --  0.9km  87%  Foggy 
 17/01/2018 - 01:00  -15.4°C  -19.2°C  1029.3 hPa  87%  5.1 km/h   --  0.9km  92%  Foggy 
 17/01/2018 - 02:00  -15.5°C  -19.3°C  1028.9 hPa  87%  5.3 km/h   --  1.1km  95%  Foggy 
 17/01/2018 - 03:00  -15.3°C  -19.3°C  1028.7 hPa  87%  5.5 km/h   0.01 mm/h  1.4km  98%  Foggy 
 17/01/2018 - 04:00  -15.1°C  -19.1°C  1028.4 hPa  87%  5.6 km/h   0.01 mm/h  1.6km  100%  Foggy 
 17/01/2018 - 05:00  -14.9°C  -18.8°C  1027.9 hPa  87%  5.5 km/h   0.02 mm/h  1.6km  100%  Foggy 
 17/01/2018 - 06:00  -14.7°C  -18.3°C  1027.3 hPa  86%  5.2 km/h   0.05 mm/h  1.4km  100%  Foggy 
 17/01/2018 - 07:00  -14.0°C  -17.5°C  1026.9 hPa  85%  5.0 km/h   0.07 mm/h  1.3km  100%  Foggy 
 17/01/2018 - 08:00  -13.0°C  -16.3°C  1026.7 hPa  84%  5.0 km/h   0.07 mm/h  1.2km  100%  Foggy 
 17/01/2018 - 09:00  -11.7°C  -14.9°C  1026.7 hPa  84%  5.0 km/h   0.06 mm/h  1.2km  100%  Foggy 
 17/01/2018 - 10:00  -10.5°C  -13.6°C  1026.3 hPa  84%  5.2 km/h   0.05 mm/h  1.5km  100%  Foggy 
 17/01/2018 - 11:00  -9.4°C  -12.3°C  1025.4 hPa  84%  5.2 km/h   0.03 mm/h  2.3km  100%  Foggy 
 17/01/2018 - 12:00  -8.2°C  -11.0°C  1024.2 hPa  82%  5.3 km/h   0.01 mm/h  3.5km  100%  Overcast 
 17/01/2018 - 13:00  -7.2°C  -10.2°C  1023.1 hPa  81%  5.8 km/h   0.01 mm/h  5.1km  99%  Overcast 
 17/01/2018 - 14:00  -6.7°C  -9.9°C  1022.2 hPa  79%  6.3 km/h   0.01 mm/h  7.8km  97%  Overcast 
 17/01/2018 - 15:00  -6.9°C  -10.6°C  1021.4 hPa  81%  7.5 km/h   0.01 mm/h  10.9km  94%  Overcast 
 17/01/2018 - 16:00  -7.6°C  -11.8°C  1020.7 hPa  83%  8.3 km/h   0.01 mm/h  11.9km  91%  Mostly Cloudy 
 17/01/2018 - 17:00  -9.0°C  -13.6°C  1020.3 hPa  85%  8.8 km/h   0.01 mm/h  8.9km  91%  Mostly Cloudy 
 17/01/2018 - 18:00  -10.5°C  -15.5°C  1020.1 hPa  87%  9.2 km/h   0.01 mm/h  3.9km  92%  Mostly Cloudy 
 17/01/2018 - 19:00  -11.6°C  -17.0°C  1019.7 hPa  88%  9.6 km/h   --  0.2km  92%  Foggy 
 17/01/2018 - 20:00  -12.0°C  -17.6°C  1018.9 hPa  87%  10.1 km/h   --  0.0km  90%  Foggy 
 17/01/2018 - 21:00  -12.0°C  -17.8°C  1018.0 hPa  86%  10.5 km/h   --  0.0km  86%  Foggy 
 17/01/2018 - 22:00  -11.9°C  -17.8°C  1017.0 hPa  86%  10.9 km/h   --  0.0km  84%  Foggy 
 17/01/2018 - 23:00  -11.8°C  -17.9°C  1015.9 hPa  87%  11.4 km/h   --  0.4km  82%  Foggy 
 18/01/2018 - 00:00  -11.6°C  -17.8°C  1014.8 hPa  88%  11.7 km/h   0.01 mm/h  0.8km  81%  Foggy 
 18/01/2018 - 01:00  -11.4°C  -17.5°C  1013.7 hPa  88%  11.8 km/h   0.01 mm/h  1.0km  80%  Foggy 
 18/01/2018 - 02:00  -11.2°C  -17.3°C  1012.6 hPa  85%  11.6 km/h   0.01 mm/h  0.8km  80%  Foggy 
 18/01/2018 - 03:00  -11.0°C  -16.9°C  1011.7 hPa  82%  11.3 km/h   0.01 mm/h  0.5km  81%  Foggy 
 18/01/2018 - 04:00  -10.8°C  -16.5°C  1010.8 hPa  79%  11.0 km/h   0.01 mm/h  0.2km  83%  Foggy 
 18/01/2018 - 05:00  -10.5°C  -16.1°C  1010.2 hPa  80%  10.8 km/h   0.02 mm/h  0.1km  84%  Foggy 
 18/01/2018 - 06:00  -10.1°C  -15.6°C  1009.8 hPa  81%  10.8 km/h   0.03 mm/h  0.1km  86%  Foggy 
Test

 

Past weather and reports

Past weatherFind in this section the past weather conditions, weather archive, graphics, reports and statistics.

Current conditions

Current weather condition for MontrealAll you need to know about the current weather conditions for Montreal. Weather data is updated every 10 minutes.

Weather forecast

Current Montreal weatherSince 2004, celinium.com website has provided accurate weather forecast for Montreal's island.